createdAt,value
2023-01-10T00:01:45.145Z,4.60
2023-01-10T00:04:12.708Z,4.70
2023-01-10T00:06:40.303Z,4.80
2023-01-10T00:09:09.545Z,4.80
2023-01-10T00:11:55.658Z,4.80
2023-01-10T00:14:23.164Z,4.80
2023-01-10T00:16:50.591Z,4.80
2023-01-10T00:19:18.112Z,4.70
2023-01-10T00:21:45.634Z,4.80
2023-01-10T00:24:19.504Z,4.80
2023-01-10T00:26:51.386Z,4.70
2023-01-10T00:29:28.013Z,4.70
2023-01-10T00:31:55.877Z,4.80
2023-01-10T00:34:24.500Z,4.80
2023-01-10T00:36:52.036Z,4.90
2023-01-10T00:39:20.987Z,4.90
2023-01-10T00:42:06.731Z,4.90
2023-01-10T00:44:34.257Z,4.90
2023-01-10T00:47:01.815Z,4.80
2023-01-10T00:49:29.306Z,4.80
2023-01-10T00:51:58.469Z,4.80
2023-01-10T00:54:26.615Z,4.80
2023-01-10T00:56:54.068Z,4.80
2023-01-10T00:59:21.740Z,4.80
2023-01-10T01:01:50.401Z,4.80
2023-01-10T01:04:18.459Z,4.80
2023-01-10T01:06:47.782Z,4.80
2023-01-10T01:09:15.748Z,4.80
2023-01-10T01:11:43.760Z,4.80
2023-01-10T01:14:11.392Z,4.80
2023-01-10T01:16:38.792Z,4.80
2023-01-10T01:19:06.240Z,4.70
2023-01-10T01:21:33.771Z,4.90
2023-01-10T01:24:01.175Z,5.00
2023-01-10T01:26:28.639Z,5.00
2023-01-10T01:28:56.155Z,5.00
2023-01-10T01:31:23.601Z,4.90
2023-01-10T01:33:51.788Z,4.90
2023-01-10T01:36:20.231Z,4.90
2023-01-10T01:38:47.724Z,4.90
2023-01-10T01:41:33.786Z,4.90
2023-01-10T01:44:17.647Z,5.00
2023-01-10T01:47:07.267Z,5.00
2023-01-10T01:49:41.621Z,5.00
2023-01-10T01:52:34.864Z,5.00
2023-01-10T01:55:04.588Z,5.10
2023-01-10T01:57:34.033Z,5.10
2023-01-10T02:00:05.122Z,5.20
2023-01-10T02:02:38.946Z,5.20
2023-01-10T02:05:09.560Z,5.20
2023-01-10T02:07:41.237Z,5.20
2023-01-10T02:10:33.074Z,5.10
2023-01-10T02:13:05.476Z,5.10
2023-01-10T02:15:33.507Z,5.10
2023-01-10T02:18:03.931Z,5.10
2023-01-10T02:21:10.112Z,5.10
2023-01-10T02:24:11.449Z,5.10
2023-01-10T02:27:15.324Z,5.00
2023-01-10T02:30:14.227Z,5.10
2023-01-10T02:33:04.306Z,5.00
2023-01-10T02:35:39.353Z,4.90
2023-01-10T02:38:44.071Z,4.90
2023-01-10T02:41:57.492Z,4.90
2023-01-10T02:44:55.546Z,4.80
2023-01-10T02:47:23.048Z,4.80
2023-01-10T02:49:52.436Z,4.80
2023-01-10T02:52:28.434Z,4.80
2023-01-10T02:55:01.580Z,4.80
2023-01-10T02:57:50.313Z,4.80
2023-01-10T03:00:32.156Z,4.80
2023-01-10T03:03:36.563Z,4.90
2023-01-10T03:06:17.943Z,4.90
2023-01-10T03:09:26.004Z,4.90
2023-01-10T03:12:25.343Z,4.90
2023-01-10T03:14:56.016Z,4.90
2023-01-10T03:17:26.236Z,4.90
2023-01-10T03:20:00.632Z,4.90
2023-01-10T03:22:31.431Z,4.90
2023-01-10T03:25:01.539Z,4.80
2023-01-10T03:27:56.815Z,4.90
2023-01-10T03:31:01.520Z,4.90
2023-01-10T03:33:32.361Z,5.00
2023-01-10T03:36:22.437Z,4.90
2023-01-10T03:39:40.251Z,5.00
2023-01-10T03:42:20.136Z,4.90
2023-01-10T03:45:09.549Z,4.90
2023-01-10T03:47:45.731Z,4.90
2023-01-10T03:50:19.402Z,4.90
2023-01-10T03:52:48.009Z,4.90
2023-01-10T03:55:22.714Z,4.80
2023-01-10T03:57:50.265Z,4.90
2023-01-10T04:00:18.818Z,4.80
2023-01-10T04:02:46.261Z,4.80
2023-01-10T04:05:13.882Z,4.90
2023-01-10T04:07:41.479Z,4.90
2023-01-10T04:10:10.506Z,4.90
2023-01-10T04:12:37.920Z,4.80
2023-01-10T04:15:06.298Z,4.80
2023-01-10T04:17:33.829Z,4.80
2023-01-10T04:20:01.271Z,4.70
2023-01-10T04:22:28.771Z,4.80
2023-01-10T04:24:56.250Z,4.80
2023-01-10T04:27:24.606Z,4.70
2023-01-10T04:29:53.356Z,4.70
2023-01-10T04:32:20.819Z,4.70
2023-01-10T04:34:48.214Z,4.60
2023-01-10T04:37:15.633Z,4.50
2023-01-10T04:39:42.999Z,4.40
2023-01-10T04:42:10.469Z,4.40
2023-01-10T04:44:37.871Z,4.40
2023-01-10T04:47:05.353Z,4.40
2023-01-10T04:49:32.782Z,4.30
2023-01-10T04:52:00.280Z,4.30
2023-01-10T04:54:27.797Z,4.20
2023-01-10T04:56:55.284Z,4.20
2023-01-10T04:59:22.778Z,4.20
2023-01-10T05:01:50.300Z,4.30
2023-01-10T05:04:20.112Z,4.30
2023-01-10T05:06:49.532Z,4.30
2023-01-10T05:09:17.257Z,4.30
2023-01-10T05:11:44.735Z,4.30
2023-01-10T05:14:12.151Z,4.30
2023-01-10T05:16:39.622Z,4.40
2023-01-10T05:19:07.084Z,4.30
2023-01-10T05:21:34.531Z,4.40
2023-01-10T05:24:01.881Z,4.30
2023-01-10T05:26:29.293Z,4.30
2023-01-10T05:28:56.774Z,4.30
2023-01-10T05:31:24.340Z,4.30
2023-01-10T05:33:52.519Z,4.30
2023-01-10T05:36:20.357Z,4.30
2023-01-10T05:38:47.929Z,4.40
2023-01-10T05:41:15.488Z,4.40
2023-01-10T05:43:42.932Z,4.40
2023-01-10T05:46:10.435Z,4.40
2023-01-10T05:48:37.967Z,4.40
2023-01-10T05:51:05.826Z,4.40
2023-01-10T05:53:33.257Z,4.40
2023-01-10T05:56:03.447Z,4.50
2023-01-10T05:58:31.118Z,4.50
2023-01-10T06:00:59.641Z,4.60
2023-01-10T06:03:27.475Z,4.60
2023-01-10T06:05:58.239Z,4.50
2023-01-10T06:08:25.860Z,4.50
2023-01-10T06:10:53.611Z,4.60
2023-01-10T06:13:21.262Z,4.50
2023-01-10T06:15:49.254Z,4.50
2023-01-10T06:18:17.084Z,4.60
2023-01-10T06:20:45.333Z,4.60
2023-01-10T06:23:13.044Z,4.60
2023-01-10T06:25:41.864Z,4.60
2023-01-10T06:28:11.855Z,4.60
2023-01-10T06:30:42.184Z,4.60
2023-01-10T06:33:11.556Z,4.60
2023-01-10T06:35:39.601Z,4.70
2023-01-10T06:38:07.188Z,4.60
2023-01-10T06:40:34.660Z,4.70
2023-01-10T06:43:02.130Z,4.60
2023-01-10T06:45:29.567Z,4.60
2023-01-10T06:47:57.136Z,4.60
2023-01-10T06:50:24.785Z,4.60
2023-01-10T06:53:03.843Z,4.60
2023-01-10T06:55:31.800Z,4.60
2023-01-10T06:58:02.865Z,4.60
2023-01-10T07:00:31.290Z,4.60
2023-01-10T07:03:01.416Z,4.60
2023-01-10T07:05:30.771Z,4.50
2023-01-10T07:07:59.071Z,4.60
2023-01-10T07:10:26.526Z,4.60
2023-01-10T07:12:57.620Z,4.60
2023-01-10T07:15:26.545Z,4.70
2023-01-10T07:17:53.993Z,4.60
2023-01-10T07:20:21.442Z,4.60
2023-01-10T07:22:58.060Z,4.60
2023-01-10T07:25:28.432Z,4.60
2023-01-10T07:27:55.965Z,4.60
2023-01-10T07:30:26.145Z,4.70
2023-01-10T07:32:57.771Z,4.60
2023-01-10T07:35:26.180Z,4.70
2023-01-10T07:37:53.600Z,4.70
2023-01-10T07:40:21.072Z,4.80
2023-01-10T07:42:48.581Z,4.70
2023-01-10T07:45:16.085Z,4.70
2023-01-10T07:47:43.603Z,4.70
2023-01-10T07:50:11.313Z,4.80
2023-01-10T07:52:38.827Z,4.80
2023-01-10T07:55:07.070Z,4.80
2023-01-10T07:57:34.571Z,4.80
2023-01-10T08:00:02.087Z,4.80
2023-01-10T08:02:29.613Z,4.90
2023-01-10T08:04:57.084Z,4.90
2023-01-10T08:07:24.476Z,4.80
2023-01-10T08:09:51.921Z,5.00
2023-01-10T08:12:19.396Z,4.90
2023-01-10T08:14:46.896Z,4.90
2023-01-10T08:17:14.291Z,4.90
2023-01-10T08:19:41.729Z,4.90
2023-01-10T08:22:09.526Z,4.90
2023-01-10T08:24:36.938Z,5.00
2023-01-10T08:27:04.989Z,5.00
2023-01-10T08:29:32.437Z,5.00
2023-01-10T08:31:59.940Z,5.00
2023-01-10T08:34:27.439Z,5.00
2023-01-10T08:36:55.343Z,5.00
2023-01-10T08:39:23.012Z,5.00
2023-01-10T08:41:50.438Z,5.00
2023-01-10T08:44:18.009Z,5.00
2023-01-10T08:46:46.079Z,5.00
2023-01-10T08:49:13.782Z,5.00
2023-01-10T08:51:41.481Z,5.10
2023-01-10T08:54:08.936Z,5.10
2023-01-10T08:56:37.589Z,5.10
2023-01-10T08:59:05.009Z,5.10
2023-01-10T09:01:32.573Z,5.20
2023-01-10T09:04:00.109Z,5.20
2023-01-10T09:06:27.724Z,5.20
2023-01-10T09:08:55.201Z,5.20
2023-01-10T09:11:22.652Z,5.30
2023-01-10T09:13:51.449Z,5.30
2023-01-10T09:16:19.689Z,5.30
2023-01-10T09:18:47.361Z,5.40
2023-01-10T09:21:14.795Z,5.30
2023-01-10T09:23:43.755Z,5.40
2023-01-10T09:26:11.363Z,5.40
2023-01-10T09:28:38.871Z,5.50
2023-01-10T09:31:09.127Z,5.50
2023-01-10T09:33:46.378Z,5.50
2023-01-10T09:36:15.994Z,5.50
2023-01-10T09:38:44.626Z,5.60
2023-01-10T09:41:43.579Z,5.60
2023-01-10T09:44:42.685Z,5.70
2023-01-10T09:47:27.930Z,5.90
2023-01-10T09:50:32.889Z,5.90
2023-01-10T09:53:12.933Z,6.00
2023-01-10T09:55:42.590Z,6.10
2023-01-10T09:58:16.969Z,6.10
2023-01-10T10:00:57.560Z,6.00
2023-01-10T10:03:54.147Z,6.00
2023-01-10T10:06:23.705Z,5.80
2023-01-10T10:08:52.870Z,5.80
2023-01-10T10:11:26.339Z,5.80
2023-01-10T10:14:08.470Z,5.90
2023-01-10T10:17:17.809Z,5.90
2023-01-10T10:20:04.240Z,5.90
2023-01-10T10:22:44.102Z,6.00
2023-01-10T10:25:11.497Z,6.00
2023-01-10T10:28:00.272Z,5.90
2023-01-10T10:30:49.668Z,5.90
2023-01-10T10:33:49.815Z,5.90
2023-01-10T10:36:47.696Z,5.90
2023-01-10T10:39:37.579Z,6.00
2023-01-10T10:42:13.164Z,6.10
2023-01-10T10:44:54.637Z,6.00
2023-01-10T10:47:24.641Z,5.90
2023-01-10T10:50:21.979Z,5.80
2023-01-10T10:52:49.515Z,5.80
2023-01-10T10:55:23.311Z,5.80
2023-01-10T10:57:59.759Z,5.80
2023-01-10T11:00:29.457Z,5.80
2023-01-10T11:03:29.847Z,5.90
2023-01-10T11:05:57.875Z,5.90
2023-01-10T11:08:25.884Z,6.00
2023-01-10T11:10:58.136Z,6.10
2023-01-10T11:13:34.648Z,6.20
2023-01-10T11:16:05.527Z,6.20
2023-01-10T11:18:34.720Z,6.30
2023-01-10T11:21:15.961Z,6.30
2023-01-10T11:23:57.022Z,6.30
2023-01-10T11:26:27.330Z,6.30
2023-01-10T11:29:26.304Z,6.30
2023-01-10T11:31:56.768Z,6.40
2023-01-10T11:34:31.625Z,6.40
2023-01-10T11:37:22.505Z,6.40
2023-01-10T11:39:49.981Z,6.40
2023-01-10T11:42:31.009Z,6.50
2023-01-10T11:45:18.668Z,6.50
2023-01-10T11:48:07.689Z,6.50
2023-01-10T11:50:46.175Z,6.40
2023-01-10T11:53:40.763Z,6.50
2023-01-10T11:56:14.879Z,6.60
2023-01-10T11:58:44.164Z,6.50
2023-01-10T12:01:45.192Z,6.60
2023-01-10T12:04:23.678Z,6.60
2023-01-10T12:06:56.371Z,6.60
2023-01-10T12:09:46.128Z,6.60
2023-01-10T12:12:19.831Z,6.60
2023-01-10T12:14:48.159Z,6.50
2023-01-10T12:17:36.706Z,6.50
2023-01-10T12:20:10.089Z,6.50
2023-01-10T12:22:47.789Z,6.50
2023-01-10T12:25:25.078Z,6.60
2023-01-10T12:27:56.571Z,6.60
2023-01-10T12:30:32.094Z,6.60
2023-01-10T12:33:05.013Z,6.70
2023-01-10T12:35:40.964Z,6.70
2023-01-10T12:38:49.402Z,6.70
2023-01-10T12:41:43.881Z,6.80
2023-01-10T12:44:22.540Z,6.80
2023-01-10T12:47:19.783Z,6.70
2023-01-10T12:49:58.525Z,6.70
2023-01-10T12:53:07.385Z,6.60
2023-01-10T12:55:44.807Z,6.50
2023-01-10T12:58:26.366Z,6.40
2023-01-10T13:00:59.615Z,6.30
2023-01-10T13:03:33.534Z,6.30
2023-01-10T13:06:02.520Z,6.40
2023-01-10T13:08:35.713Z,6.30
2023-01-10T13:11:05.909Z,6.40
2023-01-10T13:13:44.121Z,6.40
2023-01-10T13:16:40.540Z,6.50
2023-01-10T13:19:10.777Z,6.60
2023-01-10T13:21:41.190Z,6.50
2023-01-10T13:24:20.138Z,6.40
2023-01-10T13:27:03.446Z,6.40
2023-01-10T13:29:41.237Z,6.30
2023-01-10T13:32:27.777Z,6.40
2023-01-10T13:35:15.421Z,6.40
2023-01-10T13:37:45.089Z,6.40
2023-01-10T13:40:26.272Z,6.40
2023-01-10T13:43:36.699Z,6.40
2023-01-10T13:46:19.525Z,6.40
2023-01-10T13:48:49.763Z,6.40
2023-01-10T13:51:22.118Z,6.40
2023-01-10T13:53:51.963Z,6.30
2023-01-10T13:56:39.621Z,6.40
2023-01-10T13:59:43.607Z,6.30
2023-01-10T14:02:29.960Z,6.30
2023-01-10T14:05:17.771Z,6.30
2023-01-10T14:07:56.096Z,6.20
2023-01-10T14:10:30.875Z,6.20
2023-01-10T14:13:16.461Z,6.10
2023-01-10T14:15:46.724Z,6.10
2023-01-10T14:18:27.194Z,6.10
2023-01-10T14:21:08.179Z,6.10
2023-01-10T14:23:42.282Z,6.10
2023-01-10T14:26:36.076Z,6.10
2023-01-10T14:29:15.909Z,6.10
2023-01-10T14:31:50.054Z,6.10
2023-01-10T14:34:28.121Z,6.00
2023-01-10T14:37:25.263Z,5.90
2023-01-10T14:39:56.134Z,5.90
2023-01-10T14:42:26.221Z,5.80
2023-01-10T14:45:26.623Z,5.80
2023-01-10T14:47:54.628Z,5.70
2023-01-10T14:50:32.694Z,5.60
2023-01-10T14:53:00.770Z,5.50
2023-01-10T14:55:28.355Z,5.60
2023-01-10T14:58:00.325Z,5.50
2023-01-10T15:00:40.770Z,5.40
2023-01-10T15:03:18.302Z,5.30
2023-01-10T15:05:50.218Z,5.30
2023-01-10T15:08:28.602Z,5.20
2023-01-10T15:11:02.691Z,5.20
2023-01-10T15:13:31.692Z,5.10
2023-01-10T15:16:00.699Z,5.10
2023-01-10T15:18:36.287Z,5.00
2023-01-10T15:21:04.960Z,5.00
2023-01-10T15:23:42.691Z,4.90
2023-01-10T15:26:21.415Z,4.80
2023-01-10T15:29:13.691Z,4.80
2023-01-10T15:31:41.923Z,4.80
2023-01-10T15:34:21.890Z,4.80
2023-01-10T15:36:55.169Z,4.70
2023-01-10T15:39:26.299Z,4.80
2023-01-10T15:42:05.920Z,4.90
2023-01-10T15:44:52.555Z,4.80
2023-01-10T15:47:48.851Z,4.80
2023-01-10T15:50:27.420Z,4.90
2023-01-10T15:52:57.842Z,4.90
2023-01-10T15:55:54.695Z,4.80
2023-01-10T15:58:37.757Z,4.80
2023-01-10T16:01:05.691Z,4.90
2023-01-10T16:03:49.124Z,4.90
2023-01-10T16:06:37.943Z,4.90
2023-01-10T16:09:20.984Z,4.80
2023-01-10T16:12:09.989Z,4.80
2023-01-10T16:14:38.166Z,4.70
2023-01-10T16:17:06.394Z,4.70
2023-01-10T16:19:34.814Z,4.70
2023-01-10T16:22:02.493Z,4.70
2023-01-10T16:24:32.851Z,4.70
2023-01-10T16:27:05.973Z,4.80
2023-01-10T16:29:34.542Z,4.70
2023-01-10T16:32:01.995Z,4.70
2023-01-10T16:34:29.925Z,4.70
2023-01-10T16:36:57.353Z,4.70
2023-01-10T16:39:24.807Z,4.60
2023-01-10T16:42:10.800Z,4.60
2023-01-10T16:44:38.199Z,4.50
2023-01-10T16:47:07.270Z,4.50
2023-01-10T16:49:34.829Z,4.40
2023-01-10T16:52:03.275Z,4.40
2023-01-10T16:54:31.336Z,4.30
2023-01-10T16:56:58.790Z,4.30
2023-01-10T16:59:26.225Z,4.40
2023-01-10T17:01:57.950Z,4.40
2023-01-10T17:04:32.641Z,4.50
2023-01-10T17:07:00.380Z,4.50
2023-01-10T17:09:30.681Z,4.40
2023-01-10T17:12:07.545Z,4.30
2023-01-10T17:14:37.162Z,4.20
2023-01-10T17:17:04.851Z,4.20
2023-01-10T17:19:32.485Z,4.20
2023-01-10T17:22:00.619Z,4.20
2023-01-10T17:24:29.853Z,4.30
2023-01-10T17:26:57.415Z,4.30
2023-01-10T17:29:24.803Z,4.30
2023-01-10T17:31:52.283Z,4.40
2023-01-10T17:34:19.889Z,4.40
2023-01-10T17:36:47.327Z,4.40
2023-01-10T17:39:15.128Z,4.50
2023-01-10T17:41:42.546Z,4.50
2023-01-10T17:44:10.000Z,4.50
2023-01-10T17:46:37.572Z,4.50
2023-01-10T17:49:04.985Z,4.40
2023-01-10T17:51:32.361Z,4.50
2023-01-10T17:54:00.020Z,4.60
2023-01-10T17:56:27.500Z,4.60
2023-01-10T17:58:54.950Z,4.60
2023-01-10T18:01:25.628Z,4.60
2023-01-10T18:03:53.822Z,4.60
2023-01-10T18:06:25.504Z,4.60
2023-01-10T18:08:54.221Z,4.60
2023-01-10T18:11:25.290Z,4.60
2023-01-10T18:13:52.909Z,4.50
2023-01-10T18:16:20.425Z,4.50
2023-01-10T18:18:47.979Z,4.50
2023-01-10T18:21:18.851Z,4.50
2023-01-10T18:23:47.068Z,4.50
2023-01-10T18:26:14.847Z,4.50
2023-01-10T18:28:44.977Z,4.50
2023-01-10T18:31:18.362Z,4.50
2023-01-10T18:33:47.844Z,4.60
2023-01-10T18:36:22.203Z,4.50
2023-01-10T18:38:50.974Z,4.60
2023-01-10T18:41:20.710Z,4.50
2023-01-10T18:43:48.639Z,4.40
2023-01-10T18:46:20.589Z,4.40
2023-01-10T18:48:51.203Z,4.40
2023-01-10T18:51:19.422Z,4.40
2023-01-10T18:53:47.773Z,4.40
2023-01-10T18:56:16.262Z,4.30
2023-01-10T18:58:44.246Z,4.30
2023-01-10T19:01:20.594Z,4.20
2023-01-10T19:03:50.313Z,4.20
2023-01-10T19:06:21.743Z,4.20
2023-01-10T19:08:54.443Z,4.20
2023-01-10T19:11:22.038Z,4.20
2023-01-10T19:13:54.204Z,4.20
2023-01-10T19:16:28.389Z,4.30
2023-01-10T19:18:59.379Z,4.20
2023-01-10T19:21:30.339Z,4.20
2023-01-10T19:24:02.808Z,4.30
2023-01-10T19:26:30.272Z,4.30
2023-01-10T19:28:57.906Z,4.40
2023-01-10T19:31:28.582Z,4.40
2023-01-10T19:34:00.589Z,4.30
2023-01-10T19:36:29.115Z,4.30
2023-01-10T19:38:58.370Z,4.20
2023-01-10T19:41:27.911Z,4.20
2023-01-10T19:44:00.560Z,4.30
2023-01-10T19:46:31.702Z,4.30
2023-01-10T19:49:08.040Z,4.20
2023-01-10T19:51:40.279Z,4.20
2023-01-10T19:54:09.273Z,4.20
2023-01-10T19:56:36.733Z,4.10
2023-01-10T19:59:04.374Z,4.20
2023-01-10T20:01:32.433Z,4.30
2023-01-10T20:04:02.872Z,4.30
2023-01-10T20:06:33.436Z,4.40
2023-01-10T20:09:01.288Z,4.30
2023-01-10T20:11:37.474Z,4.20
2023-01-10T20:14:06.967Z,4.20
2023-01-10T20:16:34.998Z,4.20
2023-01-10T20:19:02.435Z,4.20
2023-01-10T20:21:29.837Z,4.20
2023-01-10T20:23:57.278Z,4.10
2023-01-10T20:26:30.577Z,4.20
2023-01-10T20:29:04.772Z,4.10
2023-01-10T20:31:32.693Z,4.10
2023-01-10T20:34:00.519Z,4.10
2023-01-10T20:36:28.321Z,4.10
2023-01-10T20:38:55.799Z,4.10
2023-01-10T20:41:29.463Z,4.10
2023-01-10T20:43:58.531Z,4.10
2023-01-10T20:46:31.906Z,4.20
2023-01-10T20:49:02.787Z,4.20
2023-01-10T20:51:35.281Z,4.20
2023-01-10T20:54:05.926Z,4.10
2023-01-10T20:56:33.472Z,4.10
2023-01-10T20:59:01.404Z,4.10
2023-01-10T21:01:34.503Z,4.10
2023-01-10T21:04:07.409Z,4.10
2023-01-10T21:06:36.248Z,4.10
2023-01-10T21:09:05.089Z,4.10
2023-01-10T21:11:36.704Z,4.10
2023-01-10T21:14:13.287Z,4.10
2023-01-10T21:16:40.706Z,4.10
2023-01-10T21:19:10.588Z,4.10
2023-01-10T21:21:38.574Z,4.10
2023-01-10T21:24:06.496Z,4.10
2023-01-10T21:26:33.887Z,4.00
2023-01-10T21:29:02.585Z,4.00
2023-01-10T21:31:29.992Z,3.90
2023-01-10T21:33:57.583Z,3.90
2023-01-10T21:36:25.041Z,3.90
2023-01-10T21:38:52.943Z,3.90
2023-01-10T21:41:39.757Z,3.90
2023-01-10T21:44:08.575Z,3.90
2023-01-10T21:46:36.605Z,3.90
2023-01-10T21:49:05.641Z,3.90
2023-01-10T21:51:33.038Z,3.90
2023-01-10T21:54:00.507Z,3.90
2023-01-10T21:56:28.623Z,3.90
2023-01-10T21:58:56.194Z,3.80
2023-01-10T22:01:23.690Z,3.80
2023-01-10T22:03:51.265Z,3.80
2023-01-10T22:06:18.918Z,3.80
2023-01-10T22:08:46.486Z,3.80
2023-01-10T22:11:13.941Z,3.80
2023-01-10T22:13:41.404Z,3.80
2023-01-10T22:16:09.041Z,3.70
2023-01-10T22:18:36.457Z,3.60
2023-01-10T22:21:04.121Z,3.60
2023-01-10T22:23:31.617Z,3.60
2023-01-10T22:26:03.749Z,3.60
2023-01-10T22:28:31.837Z,3.60
2023-01-10T22:30:59.948Z,3.60
2023-01-10T22:33:37.034Z,3.70
2023-01-10T22:36:13.137Z,3.80
2023-01-10T22:38:41.830Z,3.80
2023-01-10T22:41:27.591Z,3.90
2023-01-10T22:43:56.154Z,3.90
2023-01-10T22:46:24.320Z,3.90
2023-01-10T22:48:52.291Z,4.00
2023-01-10T22:51:21.538Z,4.10
2023-01-10T22:53:59.376Z,4.10
2023-01-10T22:56:26.921Z,3.90
2023-01-10T22:58:54.379Z,3.70
2023-01-10T23:01:24.938Z,3.70
2023-01-10T23:03:52.688Z,3.70
2023-01-10T23:06:20.359Z,3.90
2023-01-10T23:08:48.355Z,4.00
2023-01-10T23:11:18.985Z,3.90
2023-01-10T23:13:47.764Z,3.70
2023-01-10T23:16:22.678Z,3.80
2023-01-10T23:18:50.214Z,3.60
2023-01-10T23:21:17.872Z,3.50
2023-01-10T23:23:45.301Z,3.40
2023-01-10T23:26:13.862Z,3.50
2023-01-10T23:28:47.031Z,3.30
2023-01-10T23:31:23.586Z,3.30
2023-01-10T23:33:51.857Z,3.20
2023-01-10T23:36:19.832Z,3.10
2023-01-10T23:38:47.380Z,3.10
2023-01-10T23:41:14.770Z,3.40
2023-01-10T23:43:42.838Z,3.50
2023-01-10T23:46:10.519Z,3.50
2023-01-10T23:48:38.131Z,3.30
2023-01-10T23:51:07.919Z,3.30
2023-01-10T23:53:35.233Z,3.30
2023-01-10T23:56:14.403Z,3.10
2023-01-10T23:58:42.164Z,3.10
